• Join FlightAware (Why Join?)
  • Login
  • US Flag 
Rudolph Flight #1: Arrived! 
04:45PM EST


 

Airport Tracker/Info


-or-


 

Live Flight TrackerFlight Track Log ✈ N589H ✈ 04-Mar-2014 ✈ KMIA - KPIE

Flight Track Log - Related Links

Times and Time Zones

All times are in EST time to prevent confusion due to time zone crossing. See the N589H flight status page for this flight to view local times or setup timezone preferences in your user account.

Time Position Orientation Groundspeed Altitude Reporting Facility
EST Latitude Longitude Course Direction KTS MPH feet Rate Location/Type
01:46AM 25.7994 -80.3044 259° West 146 168 700  Level Miami Center
01:47AM 25.7900 -80.3572 259° West 185 213 2,000 1,500 Climbing Miami Center
01:48AM 25.8094 -80.4178 290° West 217 250 3,800 1,920 Climbing Miami Center
01:49AM 25.8608 -80.4494 331° Northwest 223 257 5,900 2,100 Climbing Miami Center
01:49AM 25.8814 -80.4569 342° North 212 244 6,400 1,920 Climbing Miami Center
01:50AM 25.9269 -80.4744 341° North 244 281 8,400 1,860 Climbing Miami Center
01:51AM 25.9739 -80.5175 320° Northwest 236 272 10,200 1,860 Climbing Miami Center
01:52AM 26.0167 -80.5650 315° West 224 258 12,100 1,800 Climbing Miami Center
01:53AM 26.0633 -80.6150 316° Northwest 224 258 13,900 1,740 Climbing Miami Center
01:54AM 26.1103 -80.6650 316° Northwest 224 258 15,700 1,020 Climbing Miami Center
01:55AM 26.1608 -80.7222 315° West 229 264 16,000 120 Climbing Miami Center
01:56AM 26.2219 -80.7867 317° Northwest 268 308 16,000  Level Miami Center
01:57AM 26.2886 -80.8631 314° West 308 354 16,000  Level Miami Center
01:58AM 26.3433 -80.9253 314° West 315 362 16,000  Level Miami Center
01:59AM 26.4122 -81.0017 315° West 315 362 16,000  Level Miami Center
02:00AM 26.4750 -81.0667 317° Northwest 310 357 16,000  Level Miami Center
02:01AM 26.5358 -81.1336 315° West 310 357 16,000  Level Miami Center
02:02AM 26.5944 -81.2008 314° West 310 357 16,000  Level Miami Center
02:03AM 26.6511 -81.2611 316° Northwest 310 357 16,000  Level Miami Center
02:04AM 26.7117 -81.3283 315° West 310 357 16,000  Level Miami Center
02:05AM 26.7722 -81.3958 315° West 310 357 16,000  Level Miami Center
02:06AM 26.8325 -81.4633 315° West 310 357 16,000  Level Miami Center
02:07AM 26.8950 -81.5333 315° West 310 357 16,000  Level Miami Center
02:08AM 26.9614 -81.6106 314° West 310 357 16,000  Level Miami Center
02:09AM 27.0158 -81.6733 314° West 310 357 16,000  Level Miami Center
02:10AM 27.0822 -81.7461 316° Northwest 310 357 16,000  Level Miami Center
02:11AM 27.1467 -81.8164 316° Northwest 315 362 16,000  Level Miami Center
02:12AM 27.2069 -81.8867 314° West 315 362 16,000 -60 Level Miami Center
02:13AM 27.2692 -81.9547 316° Northwest 315 362 15,900 -840 Descending Miami Center
02:14AM 27.3272 -82.0228 314° West 315 362 14,400 -1,560 Descending Miami Center
02:15AM 27.3853 -82.0886 315° West 309 356 12,800 -1,620 Descending Miami Center
02:16AM 27.4414 -82.1519 315° West 297 342 11,200 -1,620 Descending Miami Center
02:17AM 27.4975 -82.2178 314° West 297 342 9,600 -1,620 Descending Miami Center
02:18AM 27.5497 -82.2717 318° Northwest 292 336 8,100 -1,620 Descending Miami Center
02:19AM 27.6075 -82.3422 313° West 292 336 6,400 -1,680 Descending Miami Center
02:20AM 27.6667 -82.4000 319° Northwest 275 316 4,700 -1,680 Descending Tampa TRACON
02:21AM 27.7167 -82.4667 310° West 260 299 3,100 -1,320 Descending Tampa TRACON
02:22AM 27.7667 -82.5333 310° West 251 289 2,000 -540 Descending Tampa TRACON
02:23AM 27.8167 -82.5833 319° Northwest 230 265 2,000 -240 Level Tampa TRACON
02:24AM 27.8500 -82.6333 307° West 198 228 1,600 -420 Descending Tampa TRACON